地図

経路データ

SID SEASON NUMBER BASIN SUBBASIN NAME ISO_TIME NATURE LAT LON WMO_WIND WMO_PRES WMO_AGENCY TRACK_TYPE DIST2LAND LANDFALL IFLAG USA_AGENCY USA_ATCF_ID USA_LAT USA_LON USA_RECORD USA_STATUS USA_WIND USA_PRES USA_SSHS USA_R34_NE USA_R34_SE USA_R34_SW USA_R34_NW USA_R50_NE USA_R50_SE USA_R50_SW USA_R50_NW USA_R64_NE USA_R64_SE USA_R64_SW USA_R64_NW USA_POCI USA_ROCI USA_RMW USA_EYE TOKYO_LAT TOKYO_LON TOKYO_GRADE TOKYO_WIND TOKYO_PRES TOKYO_R50_DIR TOKYO_R50_LONG TOKYO_R50_SHORT TOKYO_R30_DIR TOKYO_R30_LONG TOKYO_R30_SHORT TOKYO_LAND CMA_LAT CMA_LON CMA_CAT CMA_WIND CMA_PRES HKO_LAT HKO_LON HKO_CAT HKO_WIND HKO_PRES NEWDELHI_LAT NEWDELHI_LON NEWDELHI_GRADE NEWDELHI_WIND NEWDELHI_PRES NEWDELHI_CI NEWDELHI_DP NEWDELHI_POCI REUNION_LAT REUNION_LON REUNION_TYPE REUNION_WIND REUNION_PRES REUNION_TNUM REUNION_CI REUNION_RMW REUNION_R34_NE REUNION_R34_SE REUNION_R34_SW REUNION_R34_NW REUNION_R50_NE REUNION_R50_SE REUNION_R50_SW REUNION_R50_NW REUNION_R64_NE REUNION_R64_SE REUNION_R64_SW REUNION_R64_NW BOM_LAT BOM_LON BOM_TYPE BOM_WIND BOM_PRES BOM_TNUM BOM_CI BOM_RMW BOM_R34_NE BOM_R34_SE BOM_R34_SW BOM_R34_NW BOM_R50_NE BOM_R50_SE BOM_R50_SW BOM_R50_NW BOM_R64_NE BOM_R64_SE BOM_R64_SW BOM_R64_NW BOM_ROCI BOM_POCI BOM_EYE BOM_POS_METHOD BOM_PRES_METHOD NADI_LAT NADI_LON NADI_CAT NADI_WIND NADI_PRES WELLINGTON_LAT WELLINGTON_LON WELLINGTON_WIND WELLINGTON_PRES DS824_LAT DS824_LON DS824_STAGE DS824_WIND DS824_PRES TD9636_LAT TD9636_LON TD9636_STAGE TD9636_WIND TD9636_PRES TD9635_LAT TD9635_LON TD9635_WIND TD9635_PRES TD9635_ROCI NEUMANN_LAT NEUMANN_LON NEUMANN_CLASS NEUMANN_WIND NEUMANN_PRES MLC_LAT MLC_LON MLC_CLASS MLC_WIND MLC_PRES USA_GUST BOM_GUST BOM_GUST_PER REUNION_GUST REUNION_GUST_PER USA_SEAHGT USA_SEARAD_NE USA_SEARAD_SE USA_SEARAD_SW USA_SEARAD_NW STORM_SPEED STORM_DIR
1960243N11137 1960 63 WP MM GLORIA 1960-08-29 18:00:00 TS 10.8000 137.300 main 1225 1225 __O___________ -1 10.8000 137.300 0 1005 7 8
1960243N11137 1960 63 WP MM GLORIA 1960-08-29 21:00:00 TS 11.1325 137.342 main 1232 1232 __P___________ -1 11.1325 137.342 0 1005 7 0
1960243N11137 1960 63 WP MM GLORIA 1960-08-30 00:00:00 TS 11.5000 137.300 main 1241 1230 __O___________ -1 11.5000 137.300 0 1005 8 343
1960243N11137 1960 63 WP MM GLORIA 1960-08-30 03:00:00 TS 11.9025 137.110 main 1230 1206 __P___________ -1 11.9025 137.110 0 1005 9 325
1960243N11137 1960 63 WP MM GLORIA 1960-08-30 06:00:00 TS 12.2000 136.800 main 1206 1175 __O___________ -1 12.2000 136.800 0 1005 8 298
1960243N11137 1960 63 WP MM GLORIA 1960-08-30 09:00:00 TS 12.2600 136.422 main 1164 1040 __P___________ -1 12.2600 136.422 0 1005 16 257
1960243N11137 1960 63 WP MM GLORIA 1960-08-30 12:00:00 TS 11.8500 135.250 main 1040 964 O_O______OOO__ jtwc_wp WP181960 11.5000 134.500 25 -1 12.2000 136.000 1 23 1005 11.5000 134.500 TC 25 11.5000 134.500 1 25 11.5000 134.500 25 1005 300 19 254
1960243N11137 1960 63 WP MM GLORIA 1960-08-30 15:00:00 TS 11.7527 134.592 main 964 908 P_P______PPP__ WP181960 11.5502 134.065 25 -1 12.1575 135.592 1 23 1005 11.5502 134.065 TC 25 11.5504 134.170 1 25 11.5502 134.065 25 1004 300 11 264
1960243N11137 1960 63 WP MM GLORIA 1960-08-30 18:00:00 TS 11.7251 134.102 main 908 876 O_O______OPO__ jtwc_wp WP181960 11.6000 133.700 25 -1 12.1000 135.200 1 23 1005 11.6000 133.700 TC 25 11.6005 133.843 1 25 11.6000 133.700 25 1004 300 8 268
1960243N11137 1960 63 WP MM GLORIA 1960-08-30 21:00:00 TS 11.7284 133.747 main 865 843 P_P______PPP__ WP181960 11.6499 133.442 25 -1 12.0422 134.887 1 26 1005 11.6499 133.442 TC 25 11.6503 133.519 1 25 11.6499 133.442 25 1003 300 6 273
1960243N11137 1960 63 WP MM GLORIA 1960-08-31 00:00:00 TS 11.7600 133.460 main 844 801 O_O______OOO__ jtwc_wp WP181960 11.7000 133.200 25 -1 12.0000 134.500 1 29 1005 11.7000 133.200 TC 25 11.7000 133.200 1 25 11.7000 133.200 25 1003 300 7 276
1960243N11137 1960 63 WP MM GLORIA 1960-08-31 03:00:00 TS 11.7969 133.077 main 801 757 P_P______PPP__ WP181960 11.7500 132.865 27 -1 11.9851 133.902 1 29 1005 11.7500 132.865 TC 27 11.7496 132.886 1 27 11.7500 132.865 27 1001 300 8 276
1960243N11137 1960 63 WP MM GLORIA 1960-08-31 06:00:00 TS 11.8399 132.652 main 757 716 O_O______OPO__ jtwc_wp WP181960 11.8000 132.500 30 -1 12.0000 133.200 1 29 1005 11.8000 132.500 TC 30 11.7994 132.560 1 30 11.8000 132.500 30 1000 300 8 276
1960243N11137 1960 63 WP MM GLORIA 1960-08-31 09:00:00 TS 11.8868 132.235 main 705 662 P_P______PPP__ WP181960 11.8500 132.150 32 -1 12.0348 132.522 1 29 1003 11.8500 132.150 TC 32 11.8495 132.204 1 32 11.8500 132.150 32 998 300 8 277
1960243N11137 1960 63 WP MM GLORIA 1960-08-31 12:00:00 TS 11.9400 131.800 main 662 620 O_O______OOO__ jtwc_wp WP181960 11.9000 131.800 35 0 12.1000 131.800 1 29 1002 11.9000 131.800 TC 35 11.9000 131.800 2 35 11.9000 131.800 35 997 300 8 277
1960243N11137 1960 63 WP MM GLORIA 1960-08-31 15:00:00 TS 11.9924 131.383 main 620 567 P_P______PPP__ WP181960 11.9497 131.502 40 0 12.1926 130.993 1 33 1002 11.9497 131.502 TC 40 11.9201 131.414 2 36 11.9497 131.502 40 996 300 9 277
1960243N11137 1960 63 WP MM GLORIA 1960-08-31 18:00:00 TS 12.0490 130.893 main 567 505 O_O______OPO__ jtwc_wp WP181960 12.0000 131.100 45 0 12.3000 130.200 2 38 1002 12.0000 131.100 TC 45 11.9451 130.966 2 37 12.0000 131.100 45 996 300 11 276
1960243N11137 1960 63 WP MM GLORIA 1960-08-31 21:00:00 TS 12.1047 130.293 main 505 435 P_P______PPP__ WP181960 12.0423 130.497 42 0 12.3994 129.565 2 38 1000 12.0423 130.497 TC 42 11.9976 130.410 2 38 12.0423 130.497 42 996 330 13 276
1960243N11137 1960 63 WP MM GLORIA 1960-09-01 00:00:00 TS 12.1800 129.540 main 425 343 O_O______OOO__ jtwc_wp WP181960 12.1000 129.700 40 0 12.5000 128.900 2 38 998 12.1000 129.700 TC 40 12.1000 129.700 2 40 12.1000 129.700 40 996 360 16 275
1960243N11137 1960 63 WP MM GLORIA 1960-09-01 03:00:00 TS 12.2510 128.619 main 337 229 P_P______PPP__ WP181960 12.1548 128.767 37 0 12.5553 128.015 2 38 998 12.1548 128.767 TC 37 12.2354 128.778 2 38 12.1548 128.767 37 996 330 19 277
1960243N11137 1960 63 WP MM GLORIA 1960-09-01 06:00:00 TS 12.4049 127.581 main 229 131 O_O______OPO__ jtwc_wp WP181960 12.3000 127.700 35 0 12.7000 127.100 2 38 998 12.3000 127.700 TC 35 12.4243 127.706 2 37 12.3000 127.700 35 997 300 21 282
1960243N11137 1960 63 WP MM GLORIA 1960-09-01 09:00:00 TS 12.7002 126.498 main 122 70 P_P______PPP__ WP181960 12.6052 126.543 35 0 13.0098 126.305 2 38 996 12.6052 126.543 TC 35 12.6757 126.555 2 36 12.6052 126.543 35 997 300 22 288
1960243N11137 1960 63 WP MM GLORIA 1960-09-01 12:00:00 TS 13.1000 125.440 main 70 31 O_O______OOO__ jtwc_wp WP181960 13.0000 125.400 35 0 13.5000 125.600 2 38 995 13.0000 125.400 TC 35 13.0000 125.400 2 35 13.0000 125.400 35 997 300 21 294
1960243N11137 1960 63 WP MM GLORIA 1960-09-01 15:00:00 TS 13.5438 124.537 main 24 0 P_P______PPP__ WP181960 13.3689 124.449 35 0 14.1763 125.067 2 38 995 13.3689 124.449 TC 35 13.4360 124.272 2 33 13.3689 124.449 35 997 300 20 298
1960243N11137 1960 63 WP MM GLORIA 1960-09-01 18:00:00 TS 14.0472 123.612 main 11 11 O_O______OPO__ jtwc_wp WP181960 13.8000 123.500 35 0 14.9000 124.400 2 38 995 13.8000 123.500 TC 35 13.9360 123.161 2 32 13.8000 123.500 35 998 300 23 298
1960243N11137 1960 63 WP MM GLORIA 1960-09-01 21:00:00 TS 14.6102 122.460 main 44 0 P_P______PPP__ WP181960 14.3508 122.306 32 -1 15.5560 123.261 2 33 997 14.3508 122.306 TC 32 14.4427 122.119 2 31 14.3508 122.306 32 998 330 24 296
1960243N11137 1960 63 WP MM GLORIA 1960-09-02 00:00:00 TS 15.1200 121.360 main 0 0 O_O______OOO__ jtwc_wp WP181960 14.9000 121.200 30 -1 16.0000 122.000 1 29 1000 14.9000 121.200 TC 30 14.9000 121.200 1 30 14.9000 121.200 30 999 360 20 296
1960243N11137 1960 63 WP MM GLORIA 1960-09-02 03:00:00 TS 15.4884 120.564 main 0 0 P_P______PPP__ WP181960 15.3591 120.460 32 -1 16.1191 120.969 1 29 1000 15.3591 120.460 TC 32 15.2459 120.473 1 32 15.3591 120.460 32 999 330 15 294
1960243N11137 1960 63 WP MM GLORIA 1960-09-02 06:00:00 TS 15.7273 119.914 main 0 0 O_O______OPO__ jtwc_wp WP181960 15.7000 119.900 35 0 16.0000 120.000 1 29 1000 15.7000 119.900 TC 35 15.5364 119.870 1 35 15.7000 119.900 35 1000 300 13 286
1960243N11137 1960 63 WP MM GLORIA 1960-09-02 09:00:00 TS 15.8436 119.258 main 48 48 P_P______PPP__ WP181960 15.8873 119.327 37 0 15.7723 118.977 1 29 1000 15.8873 119.327 TC 37 15.7839 119.333 1 37 15.8873 119.327 37 999 270 12 278
1960243N11137 1960 63 WP MM GLORIA 1960-09-02 12:00:00 TS 15.9000 118.640 main 118 118 O_O______OOO__ jtwc_wp WP181960 16.0000 118.800 40 0 15.5000 118.000 1 29 1000 16.0000 118.800 TC 40 16.0000 118.800 2 40 16.0000 118.800 40 998 240 12 277
1960243N11137 1960 63 WP MM GLORIA 1960-09-02 15:00:00 TS 15.9916 118.059 main 171 171 P_P______PPP__ WP181960 16.1420 118.330 37 0 15.3047 117.098 1 29 1000 16.1420 118.330 TC 37 16.2271 118.206 2 37 16.1420 118.330 37 997 240 12 280
1960243N11137 1960 63 WP MM GLORIA 1960-09-02 18:00:00 TS 16.1047 117.460 main 235 235 O_O______OPO__ jtwc_wp WP181960 16.3000 117.800 35 0 15.2000 116.300 1 29 1000 16.3000 117.800 TC 35 16.4235 117.602 2 35 16.3000 117.800 35 997 240 13 283
1960243N11137 1960 63 WP MM GLORIA 1960-09-02 21:00:00 TS 16.2681 116.770 main 311 311 P_P______PPP__ WP181960 16.5152 117.080 32 -1 15.2119 115.635 1 29 1000 16.5152 117.080 TC 32 16.5832 116.972 2 32 16.5152 117.080 32 998 210 14 283
1960243N11137 1960 63 WP MM GLORIA 1960-09-03 00:00:00 TS 16.4200 116.040 main 397 397 O_O______OOO__ jtwc_wp WP181960 16.7000 116.300 30 -1 15.3000 115.000 1 29 1000 16.7000 116.300 TC 30 16.7000 116.300 1 30 16.7000 116.300 30 999 180 14 280
1960243N11137 1960 63 WP MM GLORIA 1960-09-03 03:00:00 TS 16.5000 115.329 main 473 473 P_P______PPP__ WP181960 16.7794 115.615 30 -1 15.3850 114.250 1 29 1000 16.7794 115.615 TC 30 16.7765 115.551 1 30 16.7794 115.615 30 999 180 14 275
1960243N11137 1960 63 WP MM GLORIA 1960-09-03 06:00:00 TS 16.5421 114.593 main 504 427 O_O______OPO__ jtwc_wp WP181960 16.8000 114.900 30 -1 15.5000 113.500 1 29 1000 16.8000 114.900 TC 30 16.8104 114.764 1 30 16.8000 114.900 30 1000 180 15 273
1960243N11137 1960 63 WP MM GLORIA 1960-09-03 09:00:00 TS 16.5774 113.785 main 427 361 P_P______PPP__ WP181960 16.8078 114.042 30 -1 15.6497 112.828 1 26 1000 16.8078 114.042 TC 30 16.8140 113.970 1 30 16.8078 114.042 30 1001 180 15 272
1960243N11137 1960 63 WP MM GLORIA 1960-09-03 12:00:00 TS 16.6000 113.000 main 361 316 O_O______OOO__ jtwc_wp WP181960 16.8000 113.200 30 -1 15.8000 112.200 1 23 1000 16.8000 113.200 TC 30 16.8000 113.200 1 30 16.8000 113.200 30 1002 180 14 272
1960243N11137 1960 63 WP MM GLORIA 1960-09-03 15:00:00 TS 16.6215 112.327 main 309 270 P_P______PPP__ WP181960 16.8069 112.528 30 -1 15.9074 111.577 1 23 1000 16.8069 112.528 TC 30 16.7796 112.477 1 30 16.8069 112.528 30 1002 180 13 270
1960243N11137 1960 63 WP MM GLORIA 1960-09-03 18:00:00 TS 16.5917 111.655 main 270 232 O_O______OPO__ jtwc_wp WP181960 16.8000 111.900 30 -1 16.0000 111.000 1 23 1000 16.8000 111.900 TC 30 16.7557 111.795 1 30 16.8000 111.900 30 1003 180 13 266
1960243N11137 1960 63 WP MM GLORIA 1960-09-03 21:00:00 TS 16.5351 110.962 main 235 200 P_P______PPP__ WP181960 16.7607 111.220 30 -1 16.0998 110.485 1 21 1000 16.7607 111.220 TC 30 16.7290 111.141 1 30 16.7607 111.220 30 1003 180 14 264
1960243N11137 1960 63 WP MM GLORIA 1960-09-04 00:00:00 TS 16.4500 110.250 main 200 130 O_O______OOO__ jtwc_wp WP181960 16.7000 110.500 30 -1 16.2000 110.000 0 19 1000 16.7000 110.500 TC 30 16.7000 110.500 1 30 16.7000 110.500 30 1004 180 14 259
1960243N11137 1960 63 WP MM GLORIA 1960-09-04 03:00:00 TS 16.2699 109.492 main 130 87 __P___________ WP181960 -1 16.2699 109.492 0 1000 TC 1 12 268
1960243N11137 1960 63 WP MM GLORIA 1960-09-04 06:00:00 TS 16.4000 109.000 main 87 69 __O___________ -1 16.4000 109.000 0 1000 1 10 293
1960243N11137 1960 63 WP MM GLORIA 1960-09-04 09:00:00 TS 16.6624 108.542 main 70 64 __P___________ -1 16.6624 108.542 0 1000 1 11 305
1960243N11137 1960 63 WP MM GLORIA 1960-09-04 12:00:00 TS 17.0000 108.100 main 69 61 __O___________ -1 17.0000 108.100 0 1000 11 307
1960243N11137 1960 63 WP MM GLORIA 1960-09-04 15:00:00 TS 17.3124 107.650 main 57 54 __P___________ -1 17.3124 107.650 0 1000 11 309
1960243N11137 1960 63 WP MM GLORIA 1960-09-04 18:00:00 TS 17.7000 107.200 main 61 38 __O___________ -1 17.7000 107.200 0 1001 13 317
1960243N11137 1960 63 WP MM GLORIA 1960-09-04 21:00:00 TS 18.2424 106.750 main 43 38 __P___________ -1 18.2424 106.750 0 1001 14 322
1960243N11137 1960 63 WP MM GLORIA 1960-09-05 00:00:00 TS 18.8000 106.300 main 53 15 __O___________ -1 18.8000 106.300 0 1001 13 319
1960243N11137 1960 63 WP MM GLORIA 1960-09-05 03:00:00 TS 19.2402 105.850 main 15 0 __P___________ -1 19.2402 105.850 0 1001 12 313
1960243N11137 1960 63 WP MM GLORIA 1960-09-05 06:00:00 TS 19.6000 105.400 main 0 __O___________ -1 19.6000 105.400 0 1002 11 310

デジタル台風データ・検索

IBTrACS Databaseについて

本データベースは、米国NOAAが公開する1842年以降の世界の熱帯低気圧のベストトラックデータアーカイブInternational Best Track Archive for Climate Stewardship (IBTrACS)を、ウェブで閲覧しやすい形式に変換したものです。

最終更新日:2021-10-25